Time;durP1;ratioP1;P1;durP2;ratioP2;P2;SDS_P1;SDS_P2;PMS_P1;PMS_P2;Temp;Humidity;BMP_temperature;BMP_pressure;BME280_temperature;BME280_humidity;BME280_pressure;Samples;Min_cycle;Max_cycle;Signal;HPM_P1;HPM_P2
2021/05/25 00:02:05;;;;;;;1.42;0.95;;;;;;;9.69;83.22;96116.84;5120497;57;20841;-73
2021/05/25 00:07:08;;;;;;;1.90;1.10;;;;;;;9.46;81.84;96114.69;5120549;57;20109;-74
2021/05/25 00:12:11;;;;;;;0.73;0.73;;;;;;;9.36;80.87;96140.75;5120478;57;20702;-74
2021/05/25 00:17:14;;;;;;;1.10;1.00;;;;;;;9.24;82.51;96141.66;5120378;57;20248;-74
2021/05/25 00:22:16;;;;;;;0.80;0.80;;;;;;;9.19;81.99;96145.00;5120193;57;20136;-73
2021/05/25 00:27:19;;;;;;;2.15;1.05;;;;;;;9.11;81.95;96150.03;5120225;57;20118;-74
2021/05/25 00:32:22;;;;;;;0.80;0.80;;;;;;;9.08;83.02;96145.47;5120064;57;20149;-73
2021/05/25 00:37:24;;;;;;;0.80;0.80;;;;;;;9.11;82.50;96150.03;5112478;57;20130;-73
2021/05/25 00:42:27;;;;;;;0.60;0.60;;;;;;;8.99;82.82;96137.16;5119889;57;20140;-74
2021/05/25 00:47:34;;;;;;;1.10;0.90;;;;;;;9.01;82.82;96139.47;5120385;57;20126;-73
2021/05/25 00:52:46;;;;;;;0.80;0.80;;;;;;;8.84;82.66;96140.97;5119783;57;20149;-74
2021/05/25 00:57:50;;;;;;;2.40;0.70;;;;;;;9.07;82.57;96135.66;5120071;57;20105;-73
2021/05/25 01:02:54;;;;;;;0.70;0.70;;;;;;;9.04;83.62;96149.59;5119055;57;20141;-73
2021/05/25 01:07:58;;;;;;;0.63;0.63;;;;;;;9.08;83.02;96158.47;5120106;57;20280;-73
2021/05/25 01:13:07;;;;;;;0.75;0.75;;;;;;;9.23;83.24;96157.41;5120685;57;20145;-73
2021/05/25 01:18:09;;;;;;;1.17;0.82;;;;;;;9.12;83.55;96137.03;5119566;57;20132;-73
2021/05/25 01:23:13;;;;;;;3.20;0.75;;;;;;;9.05;83.93;96129.06;5119691;57;20140;-74
2021/05/25 01:28:19;;;;;;;0.90;0.90;;;;;;;8.98;83.70;96137.63;5120613;57;20136;-73
2021/05/25 01:33:28;;;;;;;4.82;0.93;;;;;;;8.95;83.44;96131.03;5121709;57;20131;-73
2021/05/25 01:38:32;;;;;;;0.50;0.50;;;;;;;9.13;81.82;96130.31;5119406;57;20135;-73
2021/05/25 01:43:37;;;;;;;0.60;0.60;;;;;;;8.88;82.92;96125.03;5118978;57;20140;-74
2021/05/25 01:48:40;;;;;;;0.77;0.77;;;;;;;8.90;82.63;96145.41;5119606;57;20122;-73
2021/05/25 01:53:42;;;;;;;0.60;0.60;;;;;;;9.13;81.44;96153.13;5119390;58;20127;-73
2021/05/25 01:58:45;;;;;;;0.75;0.70;;;;;;;8.98;81.41;96163.19;5118955;58;20149;-73
2021/05/25 02:03:48;;;;;;;0.65;0.65;;;;;;;9.08;80.45;96155.72;5118784;58;20140;-73
2021/05/25 02:08:51;;;;;;;1.42;0.75;;;;;;;9.07;81.63;96143.91;5119205;58;20131;-73
2021/05/25 02:13:54;;;;;;;0.68;0.68;;;;;;;9.10;79.91;96150.50;5121504;57;20144;-73
2021/05/25 02:18:57;;;;;;;0.68;0.68;;;;;;;9.02;80.74;96169.34;5122303;57;20631;-73
2021/05/25 02:24:00;;;;;;;2.10;0.75;;;;;;;8.95;81.63;96174.34;5122241;57;20119;-73
2021/05/25 02:29:02;;;;;;;0.95;0.80;;;;;;;8.89;81.25;96168.66;5122204;57;20122;-73
2021/05/25 02:34:05;;;;;;;0.70;0.65;;;;;;;8.84;81.63;96174.78;5121620;57;20232;-73
2021/05/25 02:39:08;;;;;;;0.60;0.60;;;;;;;8.63;81.07;96181.91;5121756;57;20131;-74
2021/05/25 02:44:11;;;;;;;1.13;0.80;;;;;;;8.79;80.60;96191.13;5121440;57;20216;-74
2021/05/25 02:49:14;;;;;;;0.80;0.80;;;;;;;8.82;79.52;96176.47;5121931;57;20132;-74
2021/05/25 02:54:17;;;;;;;1.17;0.80;;;;;;;8.96;78.35;96204.22;5121454;57;20118;-74
2021/05/25 02:59:20;;;;;;;0.60;0.60;;;;;;;8.93;78.56;96198.84;5121334;57;20131;-73
2021/05/25 03:04:23;;;;;;;1.27;0.68;;;;;;;8.88;77.70;96189.19;5121262;57;20250;-73
2021/05/25 03:09:29;;;;;;;0.82;0.70;;;;;;;8.83;76.69;96189.78;5121569;57;20126;-74
2021/05/25 03:14:32;;;;;;;2.53;0.77;;;;;;;8.75;77.80;96199.56;5121229;57;20754;-74
2021/05/25 03:19:35;;;;;;;1.10;0.80;;;;;;;8.65;79.09;96204.25;5121549;57;20157;-74
2021/05/25 03:24:37;;;;;;;1.42;0.90;;;;;;;8.64;78.64;96215.69;5120539;57;20605;-74
2021/05/25 03:29:40;;;;;;;1.65;0.73;;;;;;;8.78;77.48;96228.16;5121067;57;20118;-73
2021/05/25 03:34:43;;;;;;;1.00;0.60;;;;;;;8.85;77.21;96236.16;5112205;57;20141;-73
2021/05/25 03:39:46;;;;;;;2.75;0.88;;;;;;;8.75;77.82;96215.31;5112517;57;20136;-73
2021/05/25 03:44:48;;;;;;;2.33;1.23;;;;;;;8.65;78.80;96217.25;5121063;57;20134;-73
2021/05/25 03:49:52;;;;;;;1.52;0.77;;;;;;;8.58;78.61;96212.78;5120863;57;20237;-73
2021/05/25 03:54:59;;;;;;;3.03;0.90;;;;;;;8.47;79.36;96217.16;5120911;57;20127;-73
2021/05/25 04:00:04;;;;;;;3.53;0.93;;;;;;;8.60;78.51;96231.59;5120603;57;20681;-73
2021/05/25 04:05:07;;;;;;;2.80;1.05;;;;;;;8.63;77.77;96225.97;5120566;57;20569;-73
2021/05/25 04:10:10;;;;;;;1.30;0.77;;;;;;;8.76;78.02;96212.09;5120874;57;20123;-74
2021/05/25 04:15:14;;;;;;;2.55;0.70;;;;;;;8.64;78.14;96226.72;5120662;57;20202;-73
2021/05/25 04:20:16;;;;;;;1.15;0.90;;;;;;;8.55;79.07;96234.94;5120512;57;20131;-74
2021/05/25 04:25:19;;;;;;;2.72;0.70;;;;;;;8.76;77.29;96250.66;5120190;57;20681;-73
2021/05/25 04:30:23;;;;;;;3.03;0.70;;;;;;;8.86;74.82;96255.00;5120247;57;20677;-74
2021/05/25 04:35:26;;;;;;;1.17;0.88;;;;;;;8.69;77.18;96264.69;5119934;57;20160;-73
2021/05/25 04:40:30;;;;;;;1.27;0.88;;;;;;;8.76;75.89;96272.69;5120042;57;20173;-74
2021/05/25 04:45:33;;;;;;;4.97;0.80;;;;;;;8.80;76.39;96272.59;5119914;57;20123;-74
2021/05/25 04:50:37;;;;;;;3.95;0.82;;;;;;;8.90;75.83;96261.16;5120247;57;20672;-75
2021/05/25 04:55:40;;;;;;;1.50;0.80;;;;;;;8.95;75.38;96276.31;5120144;57;20122;-75
2021/05/25 05:00:44;;;;;;;2.28;0.80;;;;;;;9.17;72.80;96266.78;5120030;57;20229;-75
2021/05/25 05:05:47;;;;;;;1.10;0.75;;;;;;;9.42;70.56;96273.28;5119734;57;20166;-75
2021/05/25 05:10:49;;;;;;;0.40;0.40;;;;;;;9.30;71.03;96275.69;5119633;57;20132;-75
2021/05/25 05:15:52;;;;;;;2.47;0.80;;;;;;;9.09;70.54;96290.31;5119512;57;20114;-75
2021/05/25 05:20:55;;;;;;;1.02;0.70;;;;;;;9.36;70.73;96282.13;5119648;57;20139;-75
2021/05/25 05:25:58;;;;;;;1.17;0.90;;;;;;;9.31;68.54;96274.47;5119280;57;20191;-75
2021/05/25 05:31:01;;;;;;;2.10;0.93;;;;;;;9.67;66.99;96278.53;5119407;57;20178;-75
2021/05/25 05:36:04;;;;;;;0.55;0.40;;;;;;;9.72;67.30;96286.22;5119686;57;20174;-75
2021/05/25 05:41:07;;;;;;;1.52;0.80;;;;;;;9.48;66.20;96274.19;5119276;57;20140;-75
2021/05/25 05:46:10;;;;;;;2.72;1.00;;;;;;;9.54;63.49;96286.97;5119082;57;20126;-75
2021/05/25 05:51:13;;;;;;;2.45;1.08;;;;;;;9.18;64.71;96281.31;5119559;57;20117;-74
2021/05/25 05:56:17;;;;;;;1.10;0.80;;;;;;;9.63;62.48;96291.72;5123008;58;20238;-75
2021/05/25 06:01:20;;;;;;;2.80;1.23;;;;;;;9.67;61.88;96309.66;5118525;58;20217;-75
2021/05/25 06:06:23;;;;;;;0.65;0.60;;;;;;;9.76;63.34;96315.19;5126153;58;20118;-75
2021/05/25 06:11:26;;;;;;;0.82;0.73;;;;;;;10.00;61.92;96309.88;5125654;58;20135;-75
2021/05/25 06:16:31;;;;;;;1.25;0.80;;;;;;;10.15;62.38;96318.34;5119429;58;20126;-74
2021/05/25 06:21:34;;;;;;;5.85;0.90;;;;;;;10.47;62.17;96328.78;5120535;57;20164;-74
2021/05/25 06:26:37;;;;;;;3.38;0.60;;;;;;;10.37;60.87;96341.06;5138696;57;20126;-74
2021/05/25 06:31:39;;;;;;;6.93;2.38;;;;;;;10.50;59.89;96333.38;5138789;57;20122;-74
2021/05/25 06:36:42;;;;;;;1.70;0.80;;;;;;;10.47;60.22;96342.59;5130086;57;20117;-74
2021/05/25 06:41:45;;;;;;;1.52;0.68;;;;;;;10.37;60.75;96352.09;5138324;57;20215;-74
2021/05/25 06:46:48;;;;;;;4.15;1.10;;;;;;;10.75;59.72;96352.41;5138631;57;20139;-75
2021/05/25 06:51:50;;;;;;;0.43;0.43;;;;;;;10.71;58.65;96329.69;5138470;57;20113;-74
2021/05/25 06:56:53;;;;;;;2.45;0.80;;;;;;;10.76;58.77;96335.34;5138164;57;20236;-74
2021/05/25 07:01:56;;;;;;;1.88;0.88;;;;;;;10.92;58.51;96337.03;5141298;57;20165;-74
2021/05/25 07:06:58;;;;;;;2.17;0.80;;;;;;;11.20;59.16;96357.84;5140492;57;20198;-74
2021/05/25 07:12:02;;;;;;;3.58;0.57;;;;;;;11.27;59.29;96349.22;5141326;57;20122;-74
2021/05/25 07:17:09;;;;;;;4.55;0.80;;;;;;;11.01;56.76;96358.38;5141521;57;20203;-75
2021/05/25 07:22:12;;;;;;;3.25;1.00;;;;;;;11.64;56.55;96347.09;5141180;57;20662;-75
2021/05/25 07:27:16;;;;;;;0.65;0.40;;;;;;;11.57;54.36;96357.72;5141464;57;20139;-75
2021/05/25 07:32:19;;;;;;;2.00;0.45;;;;;;;11.72;56.33;96347.50;5133106;57;20313;-74
2021/05/25 07:37:22;;;;;;;2.38;0.93;;;;;;;12.11;55.31;96332.53;5141491;57;20126;-75
2021/05/25 07:42:26;;;;;;;1.23;0.77;;;;;;;12.67;51.79;96349.03;5136527;57;20136;-75
2021/05/25 07:47:29;;;;;;;0.50;0.50;;;;;;;12.41;53.87;96341.72;5129917;57;20126;-75
2021/05/25 07:52:33;;;;;;;0.93;0.38;;;;;;;11.51;53.32;96349.31;5133628;57;20586;-74
2021/05/25 07:57:36;;;;;;;0.80;0.80;;;;;;;11.09;53.47;96351.25;5141355;57;20112;-74
2021/05/25 08:02:40;;;;;;;1.13;0.57;;;;;;;11.45;53.95;96349.16;5132001;57;20203;-74
2021/05/25 08:07:43;;;;;;;0.73;0.63;;;;;;;11.43;52.47;96353.63;5136024;57;20185;-75
2021/05/25 08:12:46;;;;;;;3.47;0.80;;;;;;;11.88;54.33;96367.28;5132150;57;20133;-75
2021/05/25 08:17:52;;;;;;;1.50;0.70;;;;;;;11.94;52.42;96353.56;5140291;57;20117;-75
2021/05/25 08:22:57;;;;;;;2.30;0.65;;;;;;;12.35;53.16;96354.69;5133664;57;20227;-74
2021/05/25 08:28:01;;;;;;;2.53;0.90;;;;;;;12.78;53.79;96357.56;5136390;57;20229;-74
2021/05/25 08:33:05;;;;;;;2.80;0.77;;;;;;;12.22;52.49;96368.78;5137336;57;20125;-75
2021/05/25 08:38:15;;;;;;;3.20;0.77;;;;;;;11.98;52.60;96371.56;5140677;57;20724;-74
2021/05/25 08:43:18;;;;;;;5.53;0.85;;;;;;;11.91;51.41;96360.03;5157435;57;20243;-75
2021/05/25 08:48:20;;;;;;;1.23;0.40;;;;;;;12.53;49.12;96371.94;5128514;57;20926;-75
2021/05/25 08:53:28;;;;;;;1.25;0.68;;;;;;;13.44;46.53;96365.56;5137427;57;20750;-75
2021/05/25 08:58:30;;;;;;;0.75;0.50;;;;;;;13.80;44.74;96367.88;5129260;57;20125;-75
2021/05/25 09:03:33;;;;;;;2.15;0.63;;;;;;;13.54;47.53;96358.66;5125164;57;20122;-74
2021/05/25 09:08:37;;;;;;;0.57;0.50;;;;;;;14.00;45.64;96379.03;5128091;57;20659;-74
2021/05/25 09:13:39;;;;;;;4.15;1.00;;;;;;;12.50;46.47;96402.63;5129194;57;20711;-73
2021/05/25 09:18:49;;;;;;;0.88;0.40;;;;;;;13.03;47.51;96406.19;5131577;57;20135;-74
2021/05/25 09:23:51;;;;;;;;;;;;;;;14.95;40.67;96400.50;5130234;57;20599;-74
2021/05/25 09:29:04;;;;;;;2.08;0.40;;;;;;;14.24;42.34;96395.56;5134317;57;19982;-75
2021/05/25 09:34:14;;;;;;;1.25;0.70;;;;;;;15.11;41.95;96396.41;5138212;57;20227;-75
2021/05/25 09:39:16;;;;;;;1.98;0.50;;;;;;;16.53;39.79;96380.56;5127952;57;20139;-74
2021/05/25 09:44:19;;;;;;;1.63;0.50;;;;;;;16.34;38.12;96386.53;5129334;57;20729;-73
2021/05/25 09:49:21;;;;;;;0.60;0.60;;;;;;;16.72;39.83;96374.03;5130735;57;20134;-73
2021/05/25 09:54:24;;;;;;;1.45;0.68;;;;;;;16.74;38.77;96387.47;5134179;57;20117;-74
2021/05/25 09:59:32;;;;;;;1.40;0.75;;;;;;;14.56;44.09;96379.84;5133569;57;20130;-73
2021/05/25 10:04:35;;;;;;;4.45;0.90;;;;;;;13.41;44.16;96389.47;5139546;57;20139;-77
2021/05/25 10:09:37;;;;;;;1.48;0.88;;;;;;;14.91;42.85;96394.41;5135527;57;20135;-73
2021/05/25 10:14:39;;;;;;;2.85;2.03;;;;;;;15.85;41.54;96403.69;5129891;57;20104;-74
2021/05/25 10:19:42;;;;;;;1.73;0.90;;;;;;;14.85;41.78;96394.34;5134910;57;20117;-74
2021/05/25 10:24:45;;;;;;;3.08;0.77;;;;;;;16.49;41.73;96375.94;5127402;57;20139;-73
2021/05/25 10:29:48;;;;;;;2.35;0.70;;;;;;;17.05;39.30;96387.34;5136870;57;20122;-74
2021/05/25 10:34:53;;;;;;;1.48;0.73;;;;;;;15.53;39.99;96411.28;5138214;57;20148;-75
2021/05/25 10:39:56;;;;;;;1.10;0.82;;;;;;;15.25;41.74;96409.44;5133622;57;20116;-74
2021/05/25 10:45:11;;;;;;;0.68;0.60;;;;;;;15.67;40.93;96399.22;5147673;57;20309;-74
2021/05/25 10:50:27;;;;;;;0.90;0.90;;;;;;;15.75;38.73;96405.88;5149543;57;20143;-75
2021/05/25 10:55:39;;;;;;;4.97;1.23;;;;;;;15.18;39.63;96396.72;5133918;57;20135;-73
2021/05/25 11:00:41;;;;;;;2.30;0.85;;;;;;;15.73;38.61;96405.63;5126119;57;20121;-74
2021/05/25 11:06:03;;;;;;;2.40;0.98;;;;;;;15.95;39.12;96410.59;5132169;57;20148;-73
2021/05/25 11:11:09;;;;;;;1.10;1.00;;;;;;;16.30;37.06;96386.00;5127913;57;20148;-74
2021/05/25 11:16:28;;;;;;;3.78;0.93;;;;;;;16.95;35.55;96386.03;5137284;57;20678;-75
2021/05/25 11:26:58;;;;;;;2.00;0.55;;;;;;;17.05;37.51;96373.41;5149366;57;20117;-73
2021/05/25 11:32:06;;;;;;;2.33;0.68;;;;;;;16.97;36.85;96384.28;5139052;57;20122;-74
2021/05/25 11:37:16;;;;;;;1.58;1.35;;;;;;;15.61;38.02;96370.56;5135548;57;20177;-74
2021/05/25 11:42:33;;;;;;;0.73;0.70;;;;;;;17.40;36.02;96370.16;5134660;57;20246;-74
2021/05/25 11:47:37;;;;;;;0.90;0.60;;;;;;;18.15;33.62;96363.53;5135533;57;20129;-74
2021/05/25 11:52:42;;;;;;;0.95;0.80;;;;;;;17.46;35.69;96380.06;5139501;57;20117;-75
2021/05/25 11:57:48;;;;;;;2.50;0.60;;;;;;;17.34;35.32;96378.53;5115231;57;20130;-73
2021/05/25 12:02:53;;;;;;;0.57;0.40;;;;;;;17.17;34.41;96361.75;5124972;57;20134;-73
2021/05/25 12:07:58;;;;;;;1.38;0.70;;;;;;;17.19;37.30;96359.19;5139373;57;20117;-73
2021/05/25 12:13:17;;;;;;;1.92;0.98;;;;;;;17.85;36.33;96368.91;5139794;57;20139;-74
2021/05/25 12:18:24;;;;;;;2.42;1.10;;;;;;;17.18;34.85;96365.31;5139464;57;20134;-73
2021/05/25 12:23:28;;;;;;;1.00;0.73;;;;;;;17.73;35.63;96359.03;5140084;57;20156;-72
2021/05/25 12:28:55;;;;;;;2.00;0.80;;;;;;;16.87;37.14;96371.81;5138889;57;20317;-73
2021/05/25 12:33:58;;;;;;;0.55;0.55;;;;;;;17.08;37.46;96378.72;5130485;57;20131;-75
2021/05/25 12:39:06;;;;;;;2.35;0.73;;;;;;;17.61;36.64;96371.47;5120284;57;20211;-73
2021/05/25 12:44:16;;;;;;;0.75;0.75;;;;;;;17.66;35.56;96381.91;5119933;57;20131;-73
2021/05/25 12:49:37;;;;;;;;;;;;;;;18.08;32.77;96408.81;5119995;57;20114;-73
2021/05/25 12:54:50;;;;;;;0.75;0.55;;;;;;;16.75;34.38;96400.97;5118924;57;20470;-76
2021/05/25 13:00:03;;;;;;;1.77;1.13;;;;;;;17.04;33.31;96380.25;5119511;57;20180;-73
2021/05/25 13:05:13;;;;;;;1.40;0.70;;;;;;;16.73;35.06;96409.06;5119060;57;20131;-74
2021/05/25 13:10:26;;;;;;;1.48;0.70;;;;;;;18.10;35.01;96409.81;5120281;57;20131;-76
2021/05/25 13:15:48;;;;;;;3.53;0.73;;;;;;;17.76;34.59;96400.69;5120231;57;20315;-75
2021/05/25 13:20:58;;;;;;;0.57;0.38;;;;;;;18.12;35.51;96393.28;5120531;57;20685;-73
2021/05/25 13:31:23;;;;;;;0.67;0.60;;;;;;;15.84;37.61;96418.88;5119393;57;20117;-74
2021/05/25 13:36:48;;;;;;;5.55;0.68;;;;;;;16.75;37.75;96398.16;5119225;57;20681;-72
2021/05/25 13:41:51;;;;;;;5.63;1.00;;;;;;;16.95;40.36;96403.56;5118894;57;20147;-72
2021/05/25 13:46:54;;;;;;;2.28;0.82;;;;;;;16.43;34.96;96385.56;5119317;57;20118;-74
2021/05/25 13:51:56;;;;;;;1.05;0.80;;;;;;;17.32;35.92;96391.47;5120567;57;20251;-74
2021/05/25 13:57:01;;;;;;;1.92;0.57;;;;;;;18.08;32.70;96395.59;5138060;57;20113;-74
2021/05/25 14:02:04;;;;;;;1.23;0.80;;;;;;;17.63;32.55;96406.03;5136814;57;20172;-74
2021/05/25 14:07:17;;;;;;;2.50;1.00;;;;;;;17.97;34.09;96376.03;5138979;57;20117;-74
2021/05/25 14:12:21;;;;;;;2.97;0.57;;;;;;;18.97;34.32;96382.13;5141207;57;20121;-74
2021/05/25 14:17:23;;;;;;;1.75;0.80;;;;;;;18.04;34.36;96355.19;5132539;57;20126;-75
2021/05/25 14:22:28;;;;;;;1.95;0.80;;;;;;;18.41;34.57;96386.34;5123224;57;20126;-73
2021/05/25 14:27:30;;;;;;;2.00;0.88;;;;;;;18.44;35.91;96388.91;5121798;57;20234;-74
2021/05/25 14:32:34;;;;;;;4.82;1.08;;;;;;;17.73;34.12;96376.53;5121491;57;20734;-74
2021/05/25 14:37:37;;;;;;;1.63;0.65;;;;;;;17.31;35.73;96378.75;5121367;57;20136;-74
2021/05/25 14:42:40;;;;;;;2.13;0.70;;;;;;;16.91;33.57;96383.50;5121503;57;20147;-75
2021/05/25 14:47:43;;;;;;;1.80;1.08;;;;;;;17.67;34.62;96370.19;5112409;57;20127;-74
2021/05/25 14:53:23;;;;;;;1.55;0.60;;;;;;;17.44;36.23;96379.03;5122099;57;20121;-73
2021/05/25 14:58:25;;;;;;;3.58;0.70;;;;;;;17.57;34.50;96376.56;5141194;57;20130;-74
2021/05/25 15:08:38;;;;;;;4.32;0.73;;;;;;;17.40;36.25;96365.31;5140986;57;20577;-73
2021/05/25 15:13:42;;;;;;;1.63;0.88;;;;;;;17.60;34.40;96359.53;5119305;57;20747;-73
2021/05/25 15:18:45;;;;;;;3.47;0.90;;;;;;;17.55;33.55;96354.69;5115209;57;20149;-72
2021/05/25 15:23:48;;;;;;;1.10;0.70;;;;;;;17.70;34.53;96357.25;5138495;57;20229;-73
2021/05/25 15:28:51;;;;;;;2.30;0.70;;;;;;;17.82;33.08;96367.91;5142620;57;20181;-73
2021/05/25 15:33:54;;;;;;;1.85;0.73;;;;;;;17.16;33.59;96359.47;5122106;57;20672;-73
2021/05/25 15:38:58;;;;;;;1.50;0.63;;;;;;;17.31;33.67;96359.22;5112442;57;20135;-73
2021/05/25 15:44:02;;;;;;;1.50;0.55;;;;;;;16.38;34.60;96358.38;5106365;57;20135;-73
2021/05/25 15:49:05;;;;;;;0.57;0.57;;;;;;;16.05;34.74;96366.56;5130390;57;20128;-74
2021/05/25 15:54:07;;;;;;;2.25;0.90;;;;;;;15.78;35.40;96331.69;5110730;57;20742;-74
2021/05/25 15:59:10;;;;;;;0.52;0.52;;;;;;;15.24;37.05;96374.50;5103754;57;20114;-73
2021/05/25 16:04:14;;;;;;;0.88;0.55;;;;;;;15.95;35.44;96368.00;5105123;57;20221;-73
2021/05/25 16:09:17;;;;;;;1.90;0.68;;;;;;;16.08;35.65;96357.97;5135458;57;20223;-73
2021/05/25 16:14:19;;;;;;;2.08;0.47;;;;;;;16.05;35.45;96366.56;5127898;57;20209;-73
2021/05/25 16:19:22;;;;;;;1.02;0.75;;;;;;;15.92;35.28;96363.44;5153532;57;20761;-73
2021/05/25 16:24:25;;;;;;;0.68;0.60;;;;;;;15.89;35.75;96376.34;5135109;57;20785;-73
2021/05/25 16:29:28;;;;;;;0.77;0.68;;;;;;;15.94;35.93;96380.44;5139916;57;20169;-73
2021/05/25 16:34:30;;;;;;;0.40;0.40;;;;;;;15.74;35.55;96392.44;5130720;57;20296;-73
2021/05/25 16:39:34;;;;;;;1.95;0.65;;;;;;;15.46;35.06;96394.22;5122975;57;20117;-74
2021/05/25 16:44:37;;;;;;;3.13;0.90;;;;;;;15.58;36.31;96390.31;5122906;57;20270;-73
2021/05/25 16:49:40;;;;;;;0.63;0.63;;;;;;;15.45;34.29;96390.69;5129140;57;20695;-74
2021/05/25 16:54:42;;;;;;;2.05;0.75;;;;;;;15.12;35.88;96392.34;5139521;57;20135;-74
2021/05/25 16:59:45;;;;;;;1.35;0.47;;;;;;;15.14;35.21;96395.41;5128948;57;20122;-73
2021/05/25 17:05:18;;;;;;;2.55;0.50;;;;;;;15.31;34.06;96399.88;5139090;57;20740;-73
2021/05/25 17:10:49;;;;;;;3.27;1.10;;;;;;;15.37;34.28;96405.50;5137537;57;20109;-73
2021/05/25 17:21:01;;;;;;;1.25;0.68;;;;;;;15.49;35.16;96396.78;5130578;57;20126;-73
2021/05/25 17:31:24;;;;;;;2.38;0.85;;;;;;;15.06;37.13;96398.63;5109054;57;20672;-72
2021/05/25 17:36:27;;;;;;;0.70;0.60;;;;;;;15.31;36.99;96394.31;5117992;57;20109;-73
2021/05/25 17:41:30;;;;;;;1.90;0.52;;;;;;;15.41;35.04;96409.59;5122913;57;20129;-73
2021/05/25 17:46:34;;;;;;;4.90;0.95;;;;;;;15.53;35.79;96402.16;5127667;57;20109;-73
2021/05/25 17:51:38;;;;;;;1.85;0.68;;;;;;;15.35;35.16;96408.03;5132521;57;20122;-73
2021/05/25 17:56:41;;;;;;;1.08;0.65;;;;;;;14.83;36.18;96410.00;5138436;57;20127;-73
2021/05/25 18:01:44;;;;;;;2.15;0.70;;;;;;;14.35;38.57;96412.41;5131059;57;20366;-72
2021/05/25 18:06:48;;;;;;;2.22;0.70;;;;;;;14.01;38.95;96416.72;5158323;57;20134;-75
2021/05/25 18:11:51;;;;;;;2.10;0.60;;;;;;;13.66;38.96;96422.22;5140105;57;20224;-71
2021/05/25 18:16:53;;;;;;;1.10;0.82;;;;;;;13.43;40.32;96422.31;5137859;57;20130;-73
2021/05/25 18:21:56;;;;;;;0.68;0.60;;;;;;;13.13;41.96;96426.31;5129355;57;20211;-73
2021/05/25 18:26:58;;;;;;;1.05;0.60;;;;;;;13.01;42.79;96421.75;5130907;57;20135;-73
2021/05/25 18:32:12;;;;;;;3.53;1.10;;;;;;;12.83;43.27;96425.47;5129100;57;20649;-73
2021/05/25 18:37:18;;;;;;;1.25;0.45;;;;;;;12.50;43.67;96439.41;5156829;57;20125;-72
2021/05/25 18:42:21;;;;;;;1.45;0.82;;;;;;;12.35;44.49;96443.38;5158235;57;20282;-73
2021/05/25 18:47:24;;;;;;;1.25;0.80;;;;;;;12.32;43.15;96449.84;5156988;57;20223;-73
2021/05/25 18:52:27;;;;;;;2.47;1.02;;;;;;;12.26;43.69;96451.72;5159022;57;20120;-72
2021/05/25 18:57:56;;;;;;;2.00;0.63;;;;;;;12.22;44.23;96452.66;5151632;57;20284;-73
2021/05/25 19:02:59;;;;;;;0.55;0.55;;;;;;;12.15;44.11;96464.09;5158992;57;20129;-73
2021/05/25 19:08:02;;;;;;;2.05;0.90;;;;;;;12.03;43.92;96469.84;5161062;57;20206;-73
2021/05/25 19:13:04;;;;;;;1.17;0.73;;;;;;;11.86;44.46;96472.22;5160800;57;20130;-73
2021/05/25 19:18:08;;;;;;;0.52;0.52;;;;;;;11.78;44.32;96482.06;5160692;57;20125;-73
2021/05/25 19:23:19;;;;;;;1.20;1.08;;;;;;;11.70;45.19;96488.41;5160793;57;20245;-73
2021/05/25 19:28:21;;;;;;;1.58;0.68;;;;;;;11.68;45.54;96485.34;5160832;57;20598;-74
2021/05/25 19:33:24;;;;;;;1.17;0.63;;;;;;;11.51;46.04;96498.72;5154023;57;20688;-73
2021/05/25 19:38:28;;;;;;;1.80;0.80;;;;;;;11.38;46.83;96511.94;5150356;57;20129;-74
2021/05/25 19:43:30;;;;;;;1.38;0.70;;;;;;;11.18;47.17;96508.88;5158625;57;20129;-74
2021/05/25 19:48:33;;;;;;;2.55;0.50;;;;;;;10.82;49.45;96515.19;5139030;57;20113;-73
2021/05/25 19:53:36;;;;;;;0.70;0.70;;;;;;;10.68;49.76;96524.06;5140075;57;20663;-74
2021/05/25 19:58:39;;;;;;;1.50;0.75;;;;;;;10.61;49.92;96527.88;5150915;57;20121;-74
2021/05/25 20:03:41;;;;;;;1.98;0.80;;;;;;;10.33;51.72;96537.34;5160753;57;20143;-73
2021/05/25 20:08:44;;;;;;;1.08;0.80;;;;;;;10.27;51.22;96538.38;5171750;57;20213;-73
2021/05/25 20:13:46;;;;;;;1.80;0.60;;;;;;;10.49;50.44;96547.34;5168224;57;20243;-73
2021/05/25 20:18:49;;;;;;;2.67;0.80;;;;;;;10.83;48.75;96547.13;5160166;57;20130;-72
2021/05/25 20:23:52;;;;;;;0.60;0.60;;;;;;;10.81;48.77;96553.09;5160793;57;20671;-73
2021/05/25 20:28:55;;;;;;;1.55;0.80;;;;;;;10.79;48.45;96538.19;5160793;57;20112;-74
2021/05/25 20:39:02;;;;;;;0.90;0.60;;;;;;;10.66;49.17;96548.63;5140267;57;20122;-73
2021/05/25 20:44:07;;;;;;;3.38;0.70;;;;;;;10.60;49.24;96550.44;5136085;57;20130;-73
2021/05/25 20:49:10;;;;;;;2.65;0.82;;;;;;;10.62;50.44;96556.28;5150881;57;20669;-73
2021/05/25 20:54:12;;;;;;;2.53;0.85;;;;;;;10.79;49.04;96550.03;5144720;57;20123;-73
2021/05/25 20:59:19;;;;;;;2.85;0.85;;;;;;;10.56;49.84;96552.59;5118017;57;20127;-73
2021/05/25 21:04:21;;;;;;;2.63;0.98;;;;;;;10.37;50.71;96545.47;5117714;57;20135;-73
2021/05/25 21:09:24;;;;;;;1.08;0.80;;;;;;;10.13;51.48;96561.81;5118788;57;22430;-74
2021/05/25 21:14:28;;;;;;;1.17;1.08;;;;;;;10.28;51.95;96550.94;5133176;57;20613;-74
2021/05/25 21:19:30;;;;;;;1.70;0.80;;;;;;;10.26;51.30;96556.94;5133063;57;20577;-73
2021/05/25 21:24:33;;;;;;;1.25;0.63;;;;;;;10.10;52.09;96552.41;5140613;57;20256;-73
2021/05/25 21:29:36;;;;;;;2.58;0.80;;;;;;;10.24;51.86;96555.84;5140196;57;20121;-73
2021/05/25 21:34:39;;;;;;;1.63;0.80;;;;;;;10.13;52.13;96563.78;5139465;57;20144;-73
2021/05/25 21:39:42;;;;;;;1.10;0.60;;;;;;;10.44;51.69;96557.00;5139456;57;20122;-73
2021/05/25 21:44:44;;;;;;;1.15;0.70;;;;;;;10.26;52.29;96548.66;5139888;57;20138;-73
2021/05/25 22:17:22;;;;;;;1.10;0.88;;;;;;;8.85;59.56;96540.03;5925748;46;20662;-74
2021/05/25 22:22:25;;;;;;;0.63;0.63;;;;;;;8.89;59.48;96537.16;5128538;57;20126;-74
2021/05/25 22:27:28;;;;;;;1.35;0.95;;;;;;;9.09;58.94;96543.16;5138881;57;20130;-74
2021/05/25 22:32:31;;;;;;;1.70;0.90;;;;;;;9.00;58.33;96529.31;5130299;57;20129;-74
2021/05/25 22:37:34;;;;;;;1.70;0.80;;;;;;;9.24;57.90;96527.66;5141582;57;20135;-74
2021/05/25 22:42:38;;;;;;;1.10;0.70;;;;;;;9.45;56.69;96523.34;5141713;57;20104;-74
2021/05/25 22:47:42;;;;;;;0.55;0.55;;;;;;;9.36;57.09;96513.78;5141669;57;20130;-74
2021/05/25 22:52:44;;;;;;;0.73;0.70;;;;;;;9.47;56.99;96524.44;5141937;57;20121;-74
2021/05/25 22:57:47;;;;;;;0.73;0.70;;;;;;;9.43;57.36;96518.25;5141862;57;20140;-74
2021/05/25 23:02:50;;;;;;;1.02;0.70;;;;;;;9.51;56.66;96505.78;5140857;57;20122;-74
2021/05/25 23:07:53;;;;;;;0.75;0.70;;;;;;;9.61;56.12;96510.09;5133009;57;20676;-74
2021/05/25 23:12:56;;;;;;;2.47;0.57;;;;;;;9.73;55.69;96503.75;5141186;57;20121;-74
2021/05/25 23:17:59;;;;;;;0.60;0.60;;;;;;;9.81;55.89;96502.28;5142620;57;20117;-74
2021/05/25 23:23:03;;;;;;;3.22;0.95;;;;;;;10.05;54.70;96488.72;5141488;57;20153;-74
2021/05/25 23:28:06;;;;;;;1.65;0.70;;;;;;;10.35;54.01;96495.44;5141419;57;20671;-74
2021/05/25 23:33:10;;;;;;;0.77;0.52;;;;;;;10.25;54.62;96491.88;5141047;57;20125;-74
2021/05/25 23:38:13;;;;;;;2.67;0.80;;;;;;;10.18;54.85;96483.13;5141023;57;20662;-74
2021/05/25 23:43:16;;;;;;;0.47;0.47;;;;;;;10.43;53.60;96480.09;5140134;57;20139;-74
2021/05/25 23:48:20;;;;;;;1.17;0.68;;;;;;;10.52;53.10;96471.81;5140818;57;20148;-74
2021/05/25 23:53:23;;;;;;;0.68;0.68;;;;;;;10.36;54.74;96475.63;5141821;57;20125;-74
2021/05/25 23:58:27;;;;;;;0.75;0.70;;;;;;;10.23;55.88;96465.94;5140587;57;20121;-74
